createdAt,value
2018-12-04T14:49:31.320Z,4.95
2018-12-04T14:51:58.029Z,6.05
2018-12-04T14:54:24.760Z,5.33
2018-12-04T14:56:51.563Z,5.30
2018-12-04T14:59:18.368Z,4.70
2018-12-04T15:01:45.220Z,5.17
2018-12-04T15:04:12.030Z,5.53
2018-12-04T15:06:39.779Z,5.03
2018-12-04T15:09:06.771Z,5.62
2018-12-04T15:11:34.054Z,6.30
2018-12-04T15:14:01.079Z,6.55
2018-12-04T15:16:27.879Z,6.95
2018-12-04T15:18:55.742Z,5.87
2018-12-04T15:21:22.623Z,5.70
2018-12-04T15:23:50.381Z,5.95
2018-12-04T15:26:17.153Z,6.00
2018-12-04T15:28:44.037Z,5.75
2018-12-04T15:31:10.761Z,5.80
2018-12-04T15:33:38.288Z,5.60
2018-12-04T15:36:05.034Z,5.75
2018-12-04T15:38:31.742Z,5.80
2018-12-04T15:40:58.617Z,9.00
2018-12-04T15:43:25.400Z,7.10
2018-12-04T15:45:52.620Z,6.45
2018-12-04T15:48:19.486Z,8.13
2018-12-04T15:50:46.885Z,7.60
2018-12-04T15:53:13.653Z,8.38
2018-12-04T15:55:43.760Z,11.68
2018-12-04T15:58:10.540Z,10.13
2018-12-04T16:00:37.532Z,19.25
2018-12-04T16:03:04.276Z,17.98
2018-12-04T16:05:30.971Z,15.00
2018-12-04T16:07:57.665Z,12.60
2018-12-04T16:10:24.399Z,12.07
2018-12-04T16:12:51.088Z,9.75
2018-12-04T16:15:23.698Z,10.95
2018-12-04T16:17:50.393Z,9.78
2018-12-04T16:20:17.109Z,13.00
2018-12-04T16:22:43.798Z,9.95
2018-12-04T16:25:10.525Z,11.22
2018-12-04T16:27:37.218Z,9.20
2018-12-04T16:30:04.795Z,8.98
2018-12-04T16:32:31.510Z,9.30
2018-12-04T16:34:58.231Z,9.33
2018-12-04T16:37:24.931Z,14.68
2018-12-04T16:39:51.649Z,19.07
2018-12-04T16:42:18.337Z,19.05
2018-12-04T16:44:45.021Z,23.10
2018-12-04T16:47:11.735Z,20.72
2018-12-04T16:49:38.438Z,11.97
2018-12-04T16:52:05.128Z,11.80
2018-12-04T16:54:31.854Z,11.60
2018-12-04T16:56:58.550Z,10.08
2018-12-04T16:59:25.362Z,10.82
2018-12-04T17:01:52.185Z,11.28
2018-12-04T17:04:18.894Z,14.90
2018-12-04T17:06:45.585Z,14.10
2018-12-04T17:09:12.309Z,13.83
2018-12-04T17:11:39.009Z,15.53
2018-12-04T17:14:05.699Z,13.13
2018-12-04T17:16:32.409Z,12.18
2018-12-04T17:18:59.185Z,12.15
2018-12-04T17:21:25.897Z,12.58
2018-12-04T17:23:52.589Z,14.83
2018-12-04T17:26:19.279Z,13.18
2018-12-04T17:28:46.001Z,12.73
2018-12-04T17:31:12.701Z,13.65
2018-12-04T17:33:39.392Z,13.40
2018-12-04T17:36:06.104Z,12.90
2018-12-04T17:38:32.878Z,14.03
2018-12-04T17:40:59.580Z,12.40
2018-12-04T17:43:26.272Z,11.20
2018-12-04T17:45:52.988Z,12.00
2018-12-04T17:48:19.764Z,13.20
2018-12-04T17:50:46.465Z,17.80
2018-12-04T17:53:13.172Z,31.70
2018-12-04T17:55:39.861Z,29.07
2018-12-04T17:58:06.580Z,38.00
2018-12-04T18:00:33.274Z,23.87
2018-12-04T18:02:59.975Z,24.15
2018-12-04T18:05:26.779Z,24.95
2018-12-04T18:07:53.472Z,19.77
2018-12-04T18:10:20.179Z,18.25
2018-12-04T18:12:46.943Z,17.27
2018-12-04T18:15:13.674Z,18.12
2018-12-04T18:17:40.370Z,16.60
2018-12-04T18:20:07.065Z,18.73
2018-12-04T18:22:33.868Z,17.45
2018-12-04T18:25:00.565Z,28.85
2018-12-04T18:27:27.268Z,26.23
2018-12-04T18:29:53.986Z,22.95
2018-12-04T18:32:20.671Z,18.85
2018-12-04T18:34:47.363Z,17.67
2018-12-04T18:37:14.081Z,15.70
2018-12-04T18:39:40.782Z,15.13
2018-12-04T18:42:07.486Z,16.57
2018-12-04T18:44:34.201Z,21.87
2018-12-04T18:47:00.901Z,19.00
2018-12-04T18:49:27.584Z,19.50
2018-12-04T18:51:54.784Z,19.87
2018-12-04T18:54:21.522Z,21.42
2018-12-04T18:56:48.215Z,21.07
2018-12-04T18:59:14.944Z,21.82
2018-12-04T19:01:41.645Z,22.95
2018-12-04T19:04:08.337Z,25.00
2018-12-04T19:06:35.060Z,23.60
2018-12-04T19:09:01.762Z,31.52
2018-12-04T19:11:28.465Z,19.37
2018-12-04T19:13:55.181Z,18.87
2018-12-04T19:16:21.880Z,14.35
2018-12-04T19:18:48.648Z,15.05
2018-12-04T19:21:15.360Z,14.93
2018-12-04T19:23:42.050Z,16.40
2018-12-04T19:26:08.847Z,18.00
2018-12-04T19:28:35.557Z,17.15
2018-12-04T19:31:02.932Z,18.45
2018-12-04T19:33:30.117Z,14.85
2018-12-04T19:35:56.827Z,14.30
2018-12-04T19:38:23.576Z,23.07
2018-12-04T19:40:50.329Z,20.97
2018-12-04T19:43:17.048Z,20.35
2018-12-04T19:45:43.753Z,18.62
2018-12-04T19:48:10.468Z,17.67
2018-12-04T19:50:37.394Z,17.12
2018-12-04T19:53:04.497Z,18.17
2018-12-04T19:55:31.398Z,15.30
2018-12-04T19:57:58.100Z,14.85
2018-12-04T20:00:24.783Z,14.20
2018-12-04T20:02:51.501Z,16.00
2018-12-04T20:05:18.220Z,15.88
2018-12-04T20:07:45.790Z,16.80
2018-12-04T20:10:12.565Z,15.45
2018-12-04T20:12:39.288Z,16.85
2018-12-04T20:15:05.976Z,16.60
2018-12-04T20:17:32.660Z,17.87
2018-12-04T20:19:59.591Z,19.57
2018-12-04T20:22:26.286Z,20.80
2018-12-04T20:24:53.062Z,23.92
2018-12-04T20:27:19.785Z,21.10
2018-12-04T20:29:46.477Z,23.02
2018-12-04T20:32:13.169Z,26.05
2018-12-04T20:34:39.883Z,26.10
2018-12-04T20:37:06.577Z,23.12
2018-12-04T20:39:33.542Z,20.65
2018-12-04T20:42:00.317Z,18.45
2018-12-04T20:44:27.328Z,20.00
2018-12-04T20:46:54.018Z,22.35
2018-12-04T20:49:20.794Z,19.25
2018-12-04T20:51:47.625Z,19.55
2018-12-04T20:54:14.327Z,19.15
2018-12-04T20:56:41.055Z,19.05
2018-12-04T20:59:07.873Z,25.25
2018-12-04T21:01:34.823Z,29.77
2018-12-04T21:04:01.662Z,28.90
2018-12-04T21:06:28.813Z,22.22
2018-12-04T21:08:55.593Z,19.57
2018-12-04T21:11:22.301Z,19.00
2018-12-04T21:13:49.007Z,22.02
2018-12-04T21:16:15.704Z,30.30
2018-12-04T21:18:42.421Z,28.57
2018-12-04T21:21:09.107Z,22.82
2018-12-04T21:23:35.825Z,20.80
2018-12-04T21:26:02.520Z,19.02
2018-12-04T21:28:29.222Z,20.17
2018-12-04T21:31:01.617Z,21.07
2018-12-04T21:33:34.120Z,19.77
2018-12-04T21:36:06.521Z,17.75
2018-12-04T21:38:38.829Z,17.02
2018-12-04T21:41:07.514Z,16.60
2018-12-04T21:43:39.980Z,18.02
2018-12-04T21:46:12.543Z,16.95
2018-12-04T21:48:39.244Z,17.07
2018-12-04T21:51:05.932Z,15.58
2018-12-04T21:53:32.642Z,14.53
2018-12-04T21:55:59.356Z,15.88
2018-12-04T21:58:26.047Z,15.65
2018-12-04T22:00:52.742Z,14.15
2018-12-04T22:03:19.456Z,17.35
2018-12-04T22:05:46.149Z,16.23
2018-12-04T22:08:12.873Z,15.23
2018-12-04T22:10:39.580Z,16.45
2018-12-04T22:13:06.293Z,18.27
2018-12-04T22:15:32.988Z,21.52
2018-12-04T22:17:59.668Z,21.68
2018-12-04T22:20:26.383Z,20.08
2018-12-04T22:22:53.076Z,19.85
2018-12-04T22:25:19.790Z,21.85
2018-12-04T22:27:46.495Z,70.37
2018-12-04T22:30:13.200Z,39.65
2018-12-04T22:32:39.912Z,29.45
2018-12-04T22:35:06.617Z,26.20
2018-12-04T22:37:33.346Z,20.10
2018-12-04T22:40:00.063Z,18.70
2018-12-04T22:42:26.766Z,22.55
2018-12-04T22:44:55.455Z,20.85
2018-12-04T22:47:22.171Z,19.10
2018-12-04T22:49:48.860Z,22.37
2018-12-04T22:52:15.552Z,24.65
2018-12-04T22:54:42.268Z,23.52
2018-12-04T22:57:08.960Z,20.80
2018-12-04T22:59:35.684Z,19.85
2018-12-04T23:02:02.372Z,21.17
2018-12-04T23:04:29.069Z,25.05
2018-12-04T23:06:55.784Z,18.30
2018-12-04T23:09:22.476Z,17.62
2018-12-04T23:11:49.201Z,16.75
2018-12-04T23:14:15.891Z,14.55
2018-12-04T23:16:42.585Z,14.23
2018-12-04T23:19:09.291Z,15.50
2018-12-04T23:21:35.985Z,14.20
2018-12-04T23:24:02.703Z,13.85
2018-12-04T23:26:29.403Z,16.12
2018-12-04T23:28:56.132Z,16.10
2018-12-04T23:31:22.839Z,16.20
2018-12-04T23:33:49.553Z,18.07
2018-12-04T23:36:16.252Z,19.20
2018-12-04T23:38:42.974Z,19.98
2018-12-04T23:41:09.681Z,19.75
2018-12-04T23:43:36.428Z,19.00
2018-12-04T23:46:03.142Z,18.30
2018-12-04T23:48:29.843Z,17.87
2018-12-04T23:50:56.576Z,19.10
2018-12-04T23:53:23.299Z,18.10
2018-12-04T23:55:50.089Z,18.00
2018-12-04T23:58:16.877Z,22.05
